Time,TemperatureF,DewpointF,PressureIn,WindDirection,WindDirectionDegrees,WindSpeedMPH,WindSpeedGustMPH,Humidity,HourlyPrecipIn,Conditions,Clouds,dailyrainin,SoftwareType,DateUTC
2013-06-27 00:01:00,73.6,70.2,30.06,SE,135,1.1,0.0,89,0.00,CLR,OVC,0.00,WeatherDisplay:10.37,2013-06-27 04:01:00,
2013-06-27 00:06:00,73.6,70.2,30.06,SE,127,0.0,0.0,89,0.00,CLR,OVC,0.00,WeatherDisplay:10.37,2013-06-27 04:06:00,
2013-06-27 00:11:00,73.5,70.1,30.05,SE,127,2.3,2.3,89,0.00,CLR,OVC,0.00,WeatherDisplay:10.37,2013-06-27 04:11:00,
2013-06-27 00:16:00,73.4,70.0,30.06,SE,127,0.0,0.0,89,0.00,CLR,OVC,0.00,WeatherDisplay:10.37,2013-06-27 04:16:00,
2013-06-27 00:21:00,73.3,70.2,30.05,SE,127,1.1,0.0,90,0.00,CLR,OVC,0.00,WeatherDisplay:10.37,2013-06-27 04:21:00,
2013-06-27 00:26:00,73.1,70.0,30.05,North,360,1.1,1.1,90,0.00,CLR,OVC,0.00,WeatherDisplay:10.37,2013-06-27 04:26:00,
2013-06-27 00:31:00,73.0,69.9,30.05,SSE,156,0.0,0.0,90,0.00,CLR,OVC,0.00,WeatherDisplay:10.37,2013-06-27 04:31:00,
2013-06-27 00:36:00,72.7,69.6,30.05,SSE,156,0.0,0.0,90,0.00,CLR,OVC,0.00,WeatherDisplay:10.37,2013-06-27 04:36:00,
2013-06-27 00:41:00,72.7,69.6,30.05,SSE,156,0.0,0.0,90,0.00,CLR,OVC,0.00,WeatherDisplay:10.37,2013-06-27 04:41:00,
2013-06-27 00:46:00,72.4,69.3,30.05,SSE,156,0.0,0.0,90,0.00,CLR,OVC,0.00,WeatherDisplay:10.37,2013-06-27 04:46:00,
2013-06-27 00:51:00,72.3,69.2,30.05,SSE,156,0.0,0.0,90,0.00,CLR,OVC,0.00,WeatherDisplay:10.37,2013-06-27 04:51:00,
2013-06-27 00:56:00,72.2,69.1,30.05,SSE,156,0.0,0.0,90,0.00,CLR,OVC,0.00,WeatherDisplay:10.37,2013-06-27 04:56:00,
2013-06-27 01:01:00,72.3,69.2,30.05,SSE,156,1.1,1.1,90,0.00,CLR,OVC,0.00,WeatherDisplay:10.37,2013-06-27 05:01:00,
2013-06-27 01:06:00,72.3,69.2,30.05,SSE,156,0.0,0.0,90,0.00,CLR,OVC,0.00,WeatherDisplay:10.37,2013-06-27 05:06:00,
2013-06-27 01:11:00,72.2,69.1,30.04,SSE,156,0.0,0.0,90,0.00,CLR,OVC,0.00,WeatherDisplay:10.37,2013-06-27 05:11:00,
2013-06-27 01:16:00,72.2,69.1,30.04,SSE,156,0.0,0.0,90,0.00,CLR,OVC,0.00,WeatherDisplay:10.37,2013-06-27 05:16:00,
2013-06-27 01:21:00,72.0,68.9,30.04,SSE,156,0.0,0.0,90,0.00,CLR,OVC,0.00,WeatherDisplay:10.37,2013-06-27 05:21:00,
2013-06-27 01:26:00,71.9,68.8,30.04,SSE,156,0.0,0.0,90,0.00,CLR,OVC,0.00,WeatherDisplay:10.37,2013-06-27 05:26:00,
2013-06-27 01:31:00,71.7,68.9,30.04,SSE,156,0.0,0.0,91,0.00,CLR,OVC,0.00,WeatherDisplay:10.37,2013-06-27 05:31:00,
2013-06-27 01:36:00,71.8,69.0,30.04,SSE,156,0.0,0.0,91,0.00,CLR,OVC,0.00,WeatherDisplay:10.37,2013-06-27 05:36:00,
2013-06-27 01:41:00,71.7,68.9,30.03,SSE,156,0.0,0.0,91,0.00,CLR,OVC,0.00,WeatherDisplay:10.37,2013-06-27 05:41:00,
2013-06-27 01:46:00,71.6,68.8,30.03,SSE,156,0.0,0.0,91,0.00,CLR,OVC,0.00,WeatherDisplay:10.37,2013-06-27 05:46:00,
2013-06-27 01:51:00,71.6,68.8,30.03,SSE,158,1.1,1.1,91,0.00,CLR,OVC,0.00,WeatherDisplay:10.37,2013-06-27 05:51:00,
2013-06-27 01:54:00,71.6,68.8,30.03,SSE,157,1.1,1.1,91,0.00,CLR,OVC,0.00,WeatherDisplay:10.37,2013-06-27 05:54:00,
2013-06-27 01:56:00,71.6,68.8,30.03,SSE,157,1.1,1.1,91,0.00,CLR,OVC,0.00,WeatherDisplay:10.37,2013-06-27 05:56:00,
2013-06-27 02:01:00,71.6,68.8,30.03,SSE,157,1.1,1.1,91,0.00,CLR,OVC,0.00,WeatherDisplay:10.37,2013-06-27 06:01:00,
2013-06-27 02:08:00,71.3,68.5,30.03,East,87,1.0,0.0,91,0.00,CLR,OVC,0.00,WeatherDisplay:10.37,2013-06-27 06:08:00,
2013-06-27 02:13:00,71.3,68.5,30.03,East,83,0.0,0.0,91,0.00,CLR,OVC,0.00,WeatherDisplay:10.37,2013-06-27 06:13:00,
2013-06-27 02:18:00,71.2,68.4,30.03,East,84,1.1,0.0,91,0.00,CLR,OVC,0.00,WeatherDisplay:10.37,2013-06-27 06:18:00,
2013-06-27 02:23:00,71.3,68.5,30.03,NE,42,1.0,1.0,91,0.00,CLR,OVC,0.00,WeatherDisplay:10.37,2013-06-27 06:23:00,
2013-06-27 02:28:00,71.3,68.5,30.03,NE,42,0.0,0.0,91,0.00,CLR,OVC,0.00,WeatherDisplay:10.37,2013-06-27 06:28:00,
2013-06-27 02:33:00,71.0,68.2,30.03,NE,42,0.0,0.0,91,0.00,CLR,OVC,0.00,WeatherDisplay:10.37,2013-06-27 06:33:00,
2013-06-27 02:38:00,71.0,68.2,30.03,NE,42,0.0,0.0,91,0.00,CLR,OVC,0.00,WeatherDisplay:10.37,2013-06-27 06:38:00,
2013-06-27 02:43:00,71.0,68.2,30.02,NE,42,0.0,0.0,91,0.00,CLR,OVC,0.00,WeatherDisplay:10.37,2013-06-27 06:43:00,
2013-06-27 02:48:00,70.9,68.1,30.02,NE,42,0.0,0.0,91,0.00,CLR,OVC,0.00,WeatherDisplay:10.37,2013-06-27 06:48:00,
2013-06-27 02:53:00,70.8,68.0,30.03,NE,42,0.0,0.0,91,0.00,CLR,OVC,0.00,WeatherDisplay:10.37,2013-06-27 06:53:00,
2013-06-27 02:58:00,70.8,68.0,30.03,NE,42,0.0,0.0,91,0.00,CLR,OVC,0.00,WeatherDisplay:10.37,2013-06-27 06:58:00,
2013-06-27 03:03:00,70.6,67.8,30.03,NE,42,0.0,0.0,91,0.00,CLR,OVC,0.00,WeatherDisplay:10.37,2013-06-27 07:03:00,
2013-06-27 03:08:00,70.5,67.7,30.03,NE,42,0.0,0.0,91,0.00,CLR,OVC,0.00,WeatherDisplay:10.37,2013-06-27 07:08:00,
2013-06-27 03:13:00,70.4,67.6,30.03,NE,42,0.0,0.0,91,0.00,CLR,OVC,0.00,WeatherDisplay:10.37,2013-06-27 07:13:00,
2013-06-27 03:18:00,70.4,67.6,30.03,NE,42,0.0,0.0,91,0.00,CLR,OVC,0.00,WeatherDisplay:10.37,2013-06-27 07:18:00,
2013-06-27 03:23:00,70.3,67.5,30.03,NE,42,0.0,0.0,91,0.00,CLR,OVC,0.00,WeatherDisplay:10.37,2013-06-27 07:23:00,
2013-06-27 03:28:00,70.3,67.9,30.03,NE,43,0.0,0.0,92,0.00,CLR,OVC,0.00,WeatherDisplay:10.37,2013-06-27 07:28:00,
2013-06-27 03:33:00,70.2,67.8,30.03,NE,42,0.0,0.0,92,0.00,CLR,OVC,0.00,WeatherDisplay:10.37,2013-06-27 07:33:00,
2013-06-27 03:38:00,70.2,67.8,30.03,NE,42,0.0,0.0,92,0.00,CLR,OVC,0.00,WeatherDisplay:10.37,2013-06-27 07:38:00,
2013-06-27 03:43:00,70.1,67.7,30.03,NE,42,0.0,0.0,92,0.00,CLR,OVC,0.00,WeatherDisplay:10.37,2013-06-27 07:43:00,
2013-06-27 03:48:00,70.1,67.7,30.02,ESE,120,1.1,1.1,92,0.00,CLR,OVC,0.00,WeatherDisplay:10.37,2013-06-27 07:48:00,
2013-06-27 03:53:00,70.2,67.8,30.03,SE,132,3.4,3.4,92,0.00,CLR,OVC,0.00,WeatherDisplay:10.37,2013-06-27 07:53:00,
2013-06-27 03:58:00,70.2,67.8,30.03,SE,134,0.0,0.0,92,0.00,CLR,OVC,0.00,WeatherDisplay:10.37,2013-06-27 07:58:00,
2013-06-27 04:03:00,70.2,67.8,30.03,SE,134,0.0,0.0,92,0.00,CLR,OVC,0.00,WeatherDisplay:10.37,2013-06-27 08:03:00,
2013-06-27 04:08:00,70.2,67.8,30.03,SE,134,0.0,0.0,92,0.00,CLR,OVC,0.00,WeatherDisplay:10.37,2013-06-27 08:08:00,
2013-06-27 04:13:00,70.0,67.6,30.03,SE,133,0.0,0.0,92,0.00,CLR,OVC,0.00,WeatherDisplay:10.37,2013-06-27 08:13:00,
2013-06-27 04:18:00,69.8,67.4,30.03,SE,134,0.0,0.0,92,0.00,CLR,OVC,0.00,WeatherDisplay:10.37,2013-06-27 08:18:00,
2013-06-27 04:23:00,69.9,67.5,30.03,SE,134,0.0,0.0,92,0.00,CLR,OVC,0.00,WeatherDisplay:10.37,2013-06-27 08:23:00,
2013-06-27 04:28:00,69.9,67.5,30.03,SE,133,0.0,0.0,92,0.00,CLR,OVC,0.00,WeatherDisplay:10.37,2013-06-27 08:28:00,
2013-06-27 04:33:00,69.8,67.4,30.03,SE,134,0.0,0.0,92,0.00,CLR,OVC,0.00,WeatherDisplay:10.37,2013-06-27 08:33:00,
2013-06-27 04:38:00,69.7,67.3,30.03,SE,134,0.0,0.0,92,0.00,CLR,OVC,0.00,WeatherDisplay:10.37,2013-06-27 08:38:00,
2013-06-27 04:43:00,69.6,67.2,30.03,SE,134,0.0,0.0,92,0.00,CLR,OVC,0.00,WeatherDisplay:10.37,2013-06-27 08:43:00,
2013-06-27 04:48:00,69.6,67.2,30.03,SE,134,0.0,0.0,92,0.00,CLR,OVC,0.00,WeatherDisplay:10.37,2013-06-27 08:48:00,
2013-06-27 04:53:00,69.4,67.0,30.03,SE,134,0.0,0.0,92,0.00,CLR,OVC,0.00,WeatherDisplay:10.37,2013-06-27 08:53:00,
2013-06-27 04:58:00,69.2,66.8,30.03,SE,134,0.0,0.0,92,0.00,CLR,OVC,0.00,WeatherDisplay:10.37,2013-06-27 08:58:00,
2013-06-27 05:03:00,69.1,66.7,30.03,SE,134,0.0,0.0,92,0.00,CLR,OVC,0.00,WeatherDisplay:10.37,2013-06-27 09:03:00,
2013-06-27 05:08:00,69.0,66.6,30.03,SE,134,0.0,0.0,92,0.00,CLR,OVC,0.00,WeatherDisplay:10.37,2013-06-27 09:08:00,
2013-06-27 05:13:00,68.9,66.5,30.03,SE,133,0.0,0.0,92,0.00,CLR,OVC,0.00,WeatherDisplay:10.37,2013-06-27 09:13:00,
2013-06-27 05:18:00,68.9,66.5,30.03,SE,133,0.0,0.0,92,0.00,CLR,OVC,0.00,WeatherDisplay:10.37,2013-06-27 09:18:00,
2013-06-27 05:23:00,68.8,66.4,30.03,SE,134,0.0,0.0,92,0.00,CLR,OVC,0.00,WeatherDisplay:10.37,2013-06-27 09:23:00,
2013-06-27 05:28:00,69.0,66.6,30.03,SE,134,0.0,0.5,92,0.00,CLR,OVC,0.00,WeatherDisplay:10.37,2013-06-27 09:28:00,
2013-06-27 05:33:00,69.3,67.2,30.03,SE,133,1.1,1.1,93,0.00,CLR,OVC,0.00,WeatherDisplay:10.37,2013-06-27 09:33:00,
2013-06-27 05:38:00,69.4,67.3,30.03,NE,49,1.1,0.0,93,0.00,CLR,OVC,0.00,WeatherDisplay:10.37,2013-06-27 09:38:00,
2013-06-27 05:43:00,69.4,67.3,30.03,NE,48,0.0,0.0,93,0.00,CLR,OVC,0.00,WeatherDisplay:10.37,2013-06-27 09:43:00,
2013-06-27 05:48:00,69.6,67.5,30.03,NE,49,0.0,0.0,93,0.00,CLR,OVC,0.00,WeatherDisplay:10.37,2013-06-27 09:48:00,
2013-06-27 05:53:00,69.4,67.3,30.03,NE,50,0.0,0.0,93,0.00,CLR,OVC,0.00,WeatherDisplay:10.37,2013-06-27 09:53:00,
2013-06-27 05:58:00,69.2,67.1,30.03,NE,50,0.0,0.0,93,0.00,CLR,OVC,0.00,WeatherDisplay:10.37,2013-06-27 09:58:00,
2013-06-27 06:03:00,69.1,67.0,30.03,NE,50,0.0,0.0,93,0.00,CLR,OVC,0.00,WeatherDisplay:10.37,2013-06-27 10:03:00,
2013-06-27 06:08:00,69.2,67.1,30.04,NE,50,0.0,0.0,93,0.00,CLR,OVC,0.00,WeatherDisplay:10.37,2013-06-27 10:08:00,
2013-06-27 06:13:00,69.1,67.0,30.04,NE,48,0.0,0.0,93,0.00,CLR,OVC,0.00,WeatherDisplay:10.37,2013-06-27 10:13:00,
2013-06-27 06:18:00,69.2,67.1,30.04,NE,49,0.0,0.0,93,0.00,CLR,OVC,0.00,WeatherDisplay:10.37,2013-06-27 10:18:00,
2013-06-27 06:23:00,69.1,67.0,30.04,NE,50,0.0,0.0,93,0.00,CLR,OVC,0.00,WeatherDisplay:10.37,2013-06-27 10:23:00,
2013-06-27 06:28:00,69.2,67.1,30.04,NE,50,0.0,0.0,93,0.00,CLR,OVC,0.00,WeatherDisplay:10.37,2013-06-27 10:28:00,
2013-06-27 06:33:00,69.2,67.1,30.04,ESE,110,1.1,1.1,93,0.00,CLR,OVC,0.00,WeatherDisplay:10.37,2013-06-27 10:33:00,
2013-06-27 06:38:00,69.0,66.9,30.04,ESE,117,1.1,0.0,93,0.00,CLR,OVC,0.00,WeatherDisplay:10.37,2013-06-27 10:38:00,
2013-06-27 06:43:00,69.0,66.9,30.04,ESE,117,0.0,0.0,93,0.00,CLR,OVC,0.00,WeatherDisplay:10.37,2013-06-27 10:43:00,
2013-06-27 06:48:00,69.0,66.9,30.04,ESE,117,0.0,0.0,93,0.00,CLR,OVC,0.00,WeatherDisplay:10.37,2013-06-27 10:48:00,
2013-06-27 06:53:00,69.1,67.0,30.04,ESE,117,0.0,0.0,93,0.00,CLR,OVC,0.00,WeatherDisplay:10.37,2013-06-27 10:53:00,
2013-06-27 06:58:00,69.3,67.2,30.04,ESE,117,0.0,0.0,93,0.00,CLR,OVC,0.00,WeatherDisplay:10.37,2013-06-27 10:58:00,
2013-06-27 07:03:00,69.5,67.4,30.04,ESE,120,0.0,0.0,93,0.00,CLR,OVC,0.00,WeatherDisplay:10.37,2013-06-27 11:03:00,
2013-06-27 07:08:00,69.6,67.5,30.04,ESE,113,1.1,1.1,93,0.00,CLR,OVC,0.00,WeatherDisplay:10.37,2013-06-27 11:08:00,
2013-06-27 07:13:00,69.8,67.7,30.04,ESE,112,0.0,0.0,93,0.00,CLR,OVC,0.00,WeatherDisplay:10.37,2013-06-27 11:13:00,
2013-06-27 07:18:00,69.9,67.8,30.04,ESE,112,0.0,0.0,93,0.00,CLR,OVC,0.00,WeatherDisplay:10.37,2013-06-27 11:18:00,
2013-06-27 07:23:00,70.1,68.0,30.04,ESE,121,0.0,0.0,93,0.00,CLR,OVC,0.00,WeatherDisplay:10.37,2013-06-27 11:23:00,
2013-06-27 07:28:00,70.3,68.2,30.04,ESE,121,0.0,0.0,93,0.00,CLR,OVC,0.00,WeatherDisplay:10.37,2013-06-27 11:28:00,
2013-06-27 07:33:00,70.5,68.4,30.04,ESE,121,0.0,0.0,93,0.00,CLR,OVC,0.00,WeatherDisplay:10.37,2013-06-27 11:33:00,
2013-06-27 07:38:00,70.8,68.7,30.04,ESE,121,0.0,0.0,93,0.00,CLR,OVC,0.00,WeatherDisplay:10.37,2013-06-27 11:38:00,
2013-06-27 07:43:00,71.1,69.0,30.04,ESE,122,0.0,0.0,93,0.00,CLR,OVC,0.00,WeatherDisplay:10.37,2013-06-27 11:43:00,
2013-06-27 07:48:00,71.4,69.3,30.05,South,169,0.0,0.0,93,0.00,CLR,OVC,0.00,WeatherDisplay:10.37,2013-06-27 11:48:00,
2013-06-27 07:53:00,72.1,70.0,30.05,SSW,201,1.1,1.1,93,0.00,CLR,OVC,0.00,WeatherDisplay:10.37,2013-06-27 11:53:00,
2013-06-27 07:58:00,72.9,70.8,30.05,South,178,2.3,2.3,93,0.00,CLR,OVC,0.00,WeatherDisplay:10.37,2013-06-27 11:58:00,
2013-06-27 08:03:00,73.4,71.3,30.05,SSW,207,2.3,2.3,93,0.00,CLR,OVC,0.00,WeatherDisplay:10.37,2013-06-27 12:03:00,
2013-06-27 08:08:00,73.8,71.6,30.05,South,176,3.4,3.4,93,0.00,CLR,OVC,0.00,WeatherDisplay:10.37,2013-06-27 12:08:00,
2013-06-27 08:13:00,74.4,72.2,30.05,SW,221,2.3,2.3,93,0.00,CLR,OVC,0.00,WeatherDisplay:10.37,2013-06-27 12:13:00,
2013-06-27 08:18:00,75.0,72.5,30.05,WSW,243,2.3,2.3,92,0.00,CLR,OVC,0.00,WeatherDisplay:10.37,2013-06-27 12:18:00,
2013-06-27 08:23:00,75.5,72.7,30.05,SW,218,2.3,2.3,91,0.00,CLR,OVC,0.00,WeatherDisplay:10.37,2013-06-27 12:23:00,
2013-06-27 08:28:00,76.2,73.4,30.05,SSW,192,3.4,3.4,91,0.00,CLR,OVC,0.00,WeatherDisplay:10.37,2013-06-27 12:28:00,
2013-06-27 08:33:00,76.7,73.5,30.05,SSW,212,2.3,2.3,90,0.00,CLR,OVC,0.00,WeatherDisplay:10.37,2013-06-27 12:33:00,
2013-06-27 08:38:00,77.2,73.7,30.05,WSW,240,5.0,5.0,89,0.00,CLR,OVC,0.00,WeatherDisplay:10.37,2013-06-27 12:38:00,
2013-06-27 08:43:00,77.5,73.3,30.05,SW,222,3.4,3.4,87,0.00,CLR,OVC,0.00,WeatherDisplay:10.37,2013-06-27 12:43:00,
2013-06-27 08:48:00,77.9,73.7,30.05,SSW,202,3.4,3.4,87,0.00,CLR,OVC,0.00,WeatherDisplay:10.37,2013-06-27 12:48:00,
2013-06-27 08:49:00,77.9,73.4,30.05,SW,220,3.4,4.2,86,0.00,CLR,OVC,0.00,WeatherDisplay:10.37,2013-06-27 12:49:00,
2013-06-27 08:53:00,77.9,73.4,30.05,SW,220,3.4,4.2,86,0.00,CLR,OVC,0.00,WeatherDisplay:10.37,2013-06-27 12:53:00,
2013-06-27 08:58:00,77.9,73.4,30.05,SW,220,3.4,4.2,86,0.00,CLR,OVC,0.00,WeatherDisplay:10.37,2013-06-27 12:58:00,
2013-06-27 09:09:00,79.8,74.2,30.06,WSW,244,5.0,5.0,83,0.00,CLR,OVC,0.00,WeatherDisplay:10.37,2013-06-27 13:09:00,
2013-06-27 09:14:00,80.1,74.5,30.06,SSW,213,4.6,4.6,83,0.00,CLR,OVC,0.00,WeatherDisplay:10.37,2013-06-27 13:14:00,
2013-06-27 09:19:00,80.5,74.1,30.06,SSW,206,3.4,3.4,81,0.00,CLR,OVC,0.00,WeatherDisplay:10.37,2013-06-27 13:19:00,
2013-06-27 09:24:00,80.9,74.5,30.06,SW,218,3.4,3.4,81,0.00,CLR,OVC,0.00,WeatherDisplay:10.37,2013-06-27 13:24:00,
2013-06-27 09:29:00,81.2,74.8,30.05,SW,214,3.4,3.4,81,0.00,CLR,OVC,0.00,WeatherDisplay:10.37,2013-06-27 13:29:00,
2013-06-27 09:34:00,81.7,75.3,30.05,SW,220,3.4,3.4,81,0.00,CLR,OVC,0.00,WeatherDisplay:10.37,2013-06-27 13:34:00,
2013-06-27 09:39:00,82.2,75.4,30.05,SW,233,3.4,3.4,80,0.00,CLR,OVC,0.00,WeatherDisplay:10.37,2013-06-27 13:39:00,
2013-06-27 09:44:00,82.8,76.0,30.05,South,176,3.4,3.4,80,0.00,CLR,OVC,0.00,WeatherDisplay:10.37,2013-06-27 13:44:00,
2013-06-27 09:49:00,83.1,75.9,30.05,SW,216,3.4,3.4,79,0.00,CLR,OVC,0.00,WeatherDisplay:10.37,2013-06-27 13:49:00,
2013-06-27 09:54:00,83.4,76.2,30.04,SW,230,3.4,3.4,79,0.00,CLR,OVC,0.00,WeatherDisplay:10.37,2013-06-27 13:54:00,
2013-06-27 09:59:00,83.6,76.0,30.04,SW,215,3.4,3.4,78,0.00,CLR,OVC,0.00,WeatherDisplay:10.37,2013-06-27 13:59:00,
2013-06-27 10:04:00,83.9,76.3,30.04,SW,222,4.0,4.0,78,0.00,CLR,OVC,0.00,WeatherDisplay:10.37,2013-06-27 14:04:00,
2013-06-27 10:09:00,84.2,76.6,30.04,SSW,211,3.4,3.4,78,0.00,CLR,OVC,0.00,WeatherDisplay:10.37,2013-06-27 14:09:00,
2013-06-27 10:14:00,84.4,76.4,30.04,West,260,4.0,4.0,77,0.00,CLR,OVC,0.00,WeatherDisplay:10.37,2013-06-27 14:14:00,
2013-06-27 10:19:00,84.7,76.3,30.04,WSW,239,4.6,4.6,76,0.00,CLR,OVC,0.00,WeatherDisplay:10.37,2013-06-27 14:19:00,
2013-06-27 10:24:00,84.7,76.3,30.04,SSW,206,3.4,3.4,76,0.00,CLR,OVC,0.00,WeatherDisplay:10.37,2013-06-27 14:24:00,
2013-06-27 10:29:00,84.9,76.1,30.04,SW,232,4.6,4.6,75,0.00,CLR,OVC,0.00,WeatherDisplay:10.37,2013-06-27 14:29:00,
2013-06-27 10:34:00,85.1,76.7,30.04,West,277,4.6,4.6,76,0.00,CLR,OVC,0.00,WeatherDisplay:10.37,2013-06-27 14:34:00,
2013-06-27 10:39:00,85.4,76.2,30.04,North,350,4.6,4.6,74,0.00,CLR,OVC,0.00,WeatherDisplay:10.37,2013-06-27 14:39:00,
2013-06-27 10:44:00,85.5,76.7,30.04,South,183,4.6,4.6,75,0.00,CLR,OVC,0.00,WeatherDisplay:10.37,2013-06-27 14:44:00,
2013-06-27 10:49:00,85.8,76.5,30.04,SW,219,4.0,4.0,74,0.00,CLR,OVC,0.00,WeatherDisplay:10.37,2013-06-27 14:49:00,
2013-06-27 10:54:00,85.8,76.1,30.04,SSE,166,4.6,4.6,73,0.00,CLR,OVC,0.00,WeatherDisplay:10.37,2013-06-27 14:54:00,
2013-06-27 10:59:00,85.9,76.2,30.04,WSW,253,4.6,4.6,73,0.00,CLR,OVC,0.00,WeatherDisplay:10.37,2013-06-27 14:59:00,
2013-06-27 11:04:00,86.2,76.1,30.04,SSW,204,3.4,3.4,72,0.00,CLR,OVC,0.00,WeatherDisplay:10.37,2013-06-27 15:04:00,
2013-06-27 11:09:00,85.9,75.8,30.04,WSW,246,3.4,3.4,72,0.00,CLR,OVC,0.00,WeatherDisplay:10.37,2013-06-27 15:09:00,
2013-06-27 11:14:00,86.3,77.0,30.04,SSW,206,2.0,2.0,74,0.00,CLR,OVC,0.00,WeatherDisplay:10.37,2013-06-27 15:14:00,
2013-06-27 11:19:00,86.6,76.5,30.04,SW,220,4.0,4.0,72,0.00,FEW,OVC,0.00,WeatherDisplay:10.37,2013-06-27 15:19:00,
2013-06-27 11:24:00,86.3,75.8,30.04,West,260,3.4,3.4,71,0.00,FEW,OVC,0.00,WeatherDisplay:10.37,2013-06-27 15:24:00,
2013-06-27 11:29:00,86.9,76.4,30.04,SSE,162,1.1,1.1,71,0.00,FEW,OVC,0.00,WeatherDisplay:10.37,2013-06-27 15:29:00,
2013-06-27 11:34:00,87.0,76.0,30.05,WSW,240,3.4,3.4,70,0.00,FEW,OVC,0.00,WeatherDisplay:10.37,2013-06-27 15:34:00,
2013-06-27 11:39:00,87.3,76.7,30.04,WSW,250,3.4,3.4,71,0.00,FEW,OVC,0.00,WeatherDisplay:10.37,2013-06-27 15:39:00,
2013-06-27 11:44:00,87.9,76.0,30.04,SW,214,5.8,5.8,68,0.00,FEW,OVC,0.00,WeatherDisplay:10.37,2013-06-27 15:44:00,
2013-06-27 11:49:00,88.3,77.3,30.04,West,270,4.0,4.0,70,0.00,FEW,OVC,0.00,WeatherDisplay:10.37,2013-06-27 15:49:00,
2013-06-27 11:54:00,88.8,76.0,30.04,West,267,6.9,6.9,66,0.00,FEW,OVC,0.00,WeatherDisplay:10.37,2013-06-27 15:54:00,
2013-06-27 11:59:00,89.4,77.9,30.04,West,261,4.0,4.0,69,0.00,FEW,OVC,0.00,WeatherDisplay:10.37,2013-06-27 15:59:00,
2013-06-27 12:04:00,89.7,77.3,30.03,NNW,334,3.4,3.4,67,0.00,SCT,OVC,0.00,WeatherDisplay:10.37,2013-06-27 16:04:00,
2013-06-27 12:09:00,89.7,76.8,30.03,SW,232,3.4,3.4,66,0.00,SCT,OVC,0.00,WeatherDisplay:10.37,2013-06-27 16:09:00,
2013-06-27 12:14:00,88.9,76.1,30.03,WSW,237,3.4,3.4,66,0.00,SCT,OVC,0.00,WeatherDisplay:10.37,2013-06-27 16:14:00,
2013-06-27 12:19:00,89.7,76.4,30.03,SW,227,3.4,3.4,65,0.00,SCT,OVC,0.00,WeatherDisplay:10.37,2013-06-27 16:19:00,
2013-06-27 12:24:00,89.6,76.3,30.02,North,9,3.4,3.4,65,0.00,SCT,OVC,0.00,WeatherDisplay:10.37,2013-06-27 16:24:00,
2013-06-27 12:29:00,90.1,76.3,30.02,West,265,3.4,3.4,64,0.00,SCT,OVC,0.00,WeatherDisplay:10.37,2013-06-27 16:29:00,
2013-06-27 12:34:00,90.4,77.0,30.02,SSW,212,3.4,3.4,65,0.00,SCT,OVC,0.00,WeatherDisplay:10.37,2013-06-27 16:34:00,
2013-06-27 12:39:00,90.7,76.4,30.02,WSW,255,3.4,3.4,63,0.00,SCT,OVC,0.00,WeatherDisplay:10.37,2013-06-27 16:39:00,
2013-06-27 12:44:00,90.4,76.1,30.02,WSW,241,4.6,4.6,63,0.00,SCT,OVC,0.00,WeatherDisplay:10.37,2013-06-27 16:44:00,
2013-06-27 12:49:00,90.4,75.6,30.02,WSW,256,6.0,6.0,62,0.00,SCT,OVC,0.00,WeatherDisplay:10.37,2013-06-27 16:49:00,
2013-06-27 12:54:00,90.4,75.6,30.02,South,169,3.4,3.4,62,0.00,SCT,OVC,0.00,WeatherDisplay:10.37,2013-06-27 16:54:00,
2013-06-27 12:59:00,90.6,76.7,30.02,SW,220,4.6,4.6,64,0.00,SCT,OVC,0.00,WeatherDisplay:10.37,2013-06-27 16:59:00,
2013-06-27 13:04:00,90.5,76.2,30.02,WSW,240,2.3,2.3,63,0.00,SCT,OVC,0.00,WeatherDisplay:10.37,2013-06-27 17:04:00,
2013-06-27 13:09:00,90.9,78.0,30.02,SW,226,5.8,5.8,66,0.00,SCT,OVC,0.00,WeatherDisplay:10.37,2013-06-27 17:09:00,
2013-06-27 13:14:00,90.5,77.1,30.02,ESE,118,3.4,3.4,65,0.00,SCT,OVC,0.00,WeatherDisplay:10.37,2013-06-27 17:14:00,
2013-06-27 13:19:00,91.2,78.2,30.02,SSW,199,2.3,2.3,66,0.00,FEW,OVC,0.00,WeatherDisplay:10.37,2013-06-27 17:19:00,
2013-06-27 13:24:00,91.2,77.3,30.02,WSW,243,4.6,4.6,64,0.00,FEW,OVC,0.00,WeatherDisplay:10.37,2013-06-27 17:24:00,
2013-06-27 13:29:00,91.4,77.0,30.01,East,89,5.8,5.8,63,0.00,FEW,OVC,0.00,WeatherDisplay:10.37,2013-06-27 17:29:00,
2013-06-27 13:34:00,91.5,77.6,30.01,SW,232,5.0,5.0,64,0.00,FEW,OVC,0.00,WeatherDisplay:10.37,2013-06-27 17:34:00,
2013-06-27 13:39:00,91.5,76.6,30.01,NNW,343,4.0,4.0,62,0.00,FEW,OVC,0.00,WeatherDisplay:10.37,2013-06-27 17:39:00,
2013-06-27 13:44:00,90.9,76.6,30.00,SW,232,4.6,4.6,63,0.00,FEW,OVC,0.00,WeatherDisplay:10.37,2013-06-27 17:44:00,
2013-06-27 13:49:00,90.5,77.1,30.00,WSW,258,4.0,4.0,65,0.00,FEW,OVC,0.00,WeatherDisplay:10.37,2013-06-27 17:49:00,
2013-06-27 13:54:00,90.6,76.3,30.01,South,187,3.4,3.4,63,0.00,FEW,OVC,0.00,WeatherDisplay:10.37,2013-06-27 17:54:00,
2013-06-27 13:59:00,91.0,77.1,30.01,South,176,3.4,3.4,64,0.00,FEW,OVC,0.00,WeatherDisplay:10.37,2013-06-27 17:59:00,
2013-06-27 14:04:00,91.4,76.1,30.00,SW,217,5.0,5.0,61,0.00, +RA,OVC,0.00,WeatherDisplay:10.37,2013-06-27 18:04:00,
2013-06-27 14:09:00,91.8,75.9,30.00,SW,219,10.3,10.3,60,0.00, +RA,OVC,0.00,WeatherDisplay:10.37,2013-06-27 18:09:00,
2013-06-27 14:14:00,91.3,75.5,30.01,SW,230,8.0,8.0,60,0.00, +RA,OVC,0.00,WeatherDisplay:10.37,2013-06-27 18:14:00,
2013-06-27 14:19:00,89.1,75.3,30.02,North,10,12.6,12.6,64,0.00,-RA,OVC,0.00,WeatherDisplay:10.37,2013-06-27 18:19:00,
2013-06-27 14:24:00,86.7,75.3,30.03,North,350,11.5,11.5,69,0.00,-RA,OVC,0.00,WeatherDisplay:10.37,2013-06-27 18:24:00,
2013-06-27 14:29:00,84.8,76.0,30.03,NW,311,11.5,11.5,75,0.01,-RA,OVC,0.03,WeatherDisplay:10.37,2013-06-27 18:29:00,
2013-06-27 14:34:00,81.5,75.1,30.01,NNE,26,10.3,10.3,81,0.16,-RA,OVC,0.17,WeatherDisplay:10.37,2013-06-27 18:34:00,
2013-06-27 14:39:00,78.3,73.4,30.01,NNE,31,9.2,9.2,85,0.25,-RA,OVC,0.25,WeatherDisplay:10.37,2013-06-27 18:39:00,
2013-06-27 14:44:00,76.8,72.3,30.01,NNE,31,5.0,5.0,86,0.25,-RA,OVC,0.25,WeatherDisplay:10.37,2013-06-27 18:44:00,
2013-06-27 14:49:00,76.5,72.7,30.01,NNE,25,3.4,3.4,88,0.25,-RA,OVC,0.25,WeatherDisplay:10.37,2013-06-27 18:49:00,
2013-06-27 14:54:00,76.6,72.8,30.01,ESE,102,5.8,5.8,88,0.25,-RA,OVC,0.25,WeatherDisplay:10.37,2013-06-27 18:54:00,
2013-06-27 14:59:00,76.9,73.1,30.01,NNE,29,3.4,3.4,88,0.25,-RA,OVC,0.25,WeatherDisplay:10.37,2013-06-27 18:59:00,
2013-06-27 15:04:00,77.3,73.5,30.02,SW,227,2.3,2.3,88,0.25,CLR,OVC,0.25,WeatherDisplay:10.37,2013-06-27 19:04:00,
2013-06-27 15:09:00,77.7,73.9,30.01,SE,135,0.0,0.0,88,0.25,CLR,OVC,0.25,WeatherDisplay:10.37,2013-06-27 19:09:00,
2013-06-27 15:14:00,78.1,74.3,30.01,WSW,244,3.4,3.4,88,0.25,CLR,OVC,0.25,WeatherDisplay:10.37,2013-06-27 19:14:00,
2013-06-27 15:19:00,78.3,74.1,30.01,SW,236,4.0,4.0,87,0.25,CLR,OVC,0.25,WeatherDisplay:10.37,2013-06-27 19:19:00,
2013-06-27 15:24:00,78.5,74.0,30.01,SW,232,2.3,2.3,86,0.25,CLR,OVC,0.25,WeatherDisplay:10.37,2013-06-27 19:24:00,
2013-06-27 15:29:00,78.7,73.8,30.01,SW,220,2.3,2.3,85,0.24,CLR,OVC,0.25,WeatherDisplay:10.37,2013-06-27 19:29:00,
2013-06-27 15:34:00,79.0,73.7,30.01,SW,236,3.4,3.4,84,0.09,CLR,OVC,0.25,WeatherDisplay:10.37,2013-06-27 19:34:00,
2013-06-27 15:39:00,79.5,74.2,30.00,SW,236,1.1,0.0,84,0.00,CLR,OVC,0.25,WeatherDisplay:10.37,2013-06-27 19:39:00,
2013-06-27 15:44:00,80.1,74.8,30.00,WSW,240,0.0,0.0,84,0.00,CLR,OVC,0.25,WeatherDisplay:10.37,2013-06-27 19:44:00,
2013-06-27 15:49:00,80.5,74.1,29.99,SW,227,3.4,3.4,81,0.00,CLR,OVC,0.25,WeatherDisplay:10.37,2013-06-27 19:49:00,
2013-06-27 15:54:00,80.8,74.4,29.99,SSW,212,2.3,2.3,81,0.00,CLR,OVC,0.25,WeatherDisplay:10.37,2013-06-27 19:54:00,
2013-06-27 15:59:00,81.2,74.8,29.99,West,268,2.3,2.3,81,0.00,CLR,OVC,0.25,WeatherDisplay:10.37,2013-06-27 19:59:00,
2013-06-27 16:04:00,81.4,74.6,29.98,NNW,343,1.1,1.1,80,0.00,CLR,OVC,0.25,WeatherDisplay:10.37,2013-06-27 20:04:00,
2013-06-27 16:09:00,81.9,75.9,29.98,NNW,348,2.0,2.0,82,0.00,CLR,OVC,0.25,WeatherDisplay:10.37,2013-06-27 20:09:00,
2013-06-27 16:14:00,82.0,75.2,29.98,NNW,333,2.3,2.3,80,0.00,CLR,OVC,0.25,WeatherDisplay:10.37,2013-06-27 20:14:00,
2013-06-27 16:19:00,82.4,76.0,29.98,SW,225,1.0,0.0,81,0.00,CLR,OVC,0.25,WeatherDisplay:10.37,2013-06-27 20:19:00,
2013-06-27 16:24:00,82.6,75.4,29.98,NNE,15,1.1,1.1,79,0.00,CLR,OVC,0.25,WeatherDisplay:10.37,2013-06-27 20:24:00,
2013-06-27 16:29:00,82.8,74.8,29.97,North,355,2.3,2.3,77,0.00,CLR,OVC,0.25,WeatherDisplay:10.37,2013-06-27 20:29:00,
2013-06-27 16:34:00,83.2,76.0,29.97,North,351,2.3,2.3,79,0.00,CLR,OVC,0.25,WeatherDisplay:10.37,2013-06-27 20:34:00,
2013-06-27 16:39:00,83.7,76.1,29.97,SW,232,2.3,2.3,78,0.00,CLR,OVC,0.25,WeatherDisplay:10.37,2013-06-27 20:39:00,
2013-06-27 16:44:00,84.2,76.6,29.97,WSW,254,3.4,3.4,78,0.00,CLR,OVC,0.25,WeatherDisplay:10.37,2013-06-27 20:44:00,
2013-06-27 16:49:00,84.6,76.2,29.97,SW,236,3.4,3.4,76,0.00,CLR,OVC,0.25,WeatherDisplay:10.37,2013-06-27 20:49:00,
2013-06-27 16:54:00,84.9,76.5,29.97,SW,219,2.3,2.3,76,0.00,CLR,OVC,0.25,WeatherDisplay:10.37,2013-06-27 20:54:00,
2013-06-27 16:59:00,85.0,75.8,29.96,WNW,285,3.4,3.4,74,0.00,CLR,OVC,0.25,WeatherDisplay:10.37,2013-06-27 20:59:00,
2013-06-27 17:04:00,85.3,76.9,29.96,West,263,2.3,2.3,76,0.00,CLR,OVC,0.25,WeatherDisplay:10.37,2013-06-27 21:04:00,
2013-06-27 17:09:00,85.7,76.5,29.96,North,355,2.3,2.3,74,0.00,CLR,OVC,0.25,WeatherDisplay:10.37,2013-06-27 21:09:00,
2013-06-27 17:14:00,86.3,77.4,29.96,NW,322,2.3,2.3,75,0.00,CLR,OVC,0.25,WeatherDisplay:10.37,2013-06-27 21:14:00,
2013-06-27 17:19:00,86.8,77.5,29.96,North,358,4.0,4.0,74,0.00,CLR,OVC,0.25,WeatherDisplay:10.37,2013-06-27 21:19:00,
2013-06-27 17:24:00,86.4,76.7,29.96,SW,236,2.3,2.3,73,0.00,CLR,OVC,0.25,WeatherDisplay:10.37,2013-06-27 21:24:00,
2013-06-27 17:29:00,86.2,76.9,29.95,SW,228,2.3,2.3,74,0.00,CLR,OVC,0.25,WeatherDisplay:10.37,2013-06-27 21:29:00,
2013-06-27 17:34:00,86.4,76.7,29.95,North,8,3.4,3.4,73,0.00,CLR,OVC,0.25,WeatherDisplay:10.37,2013-06-27 21:34:00,
2013-06-27 17:39:00,86.5,76.0,29.95,SSW,206,3.4,3.4,71,0.00,CLR,OVC,0.25,WeatherDisplay:10.37,2013-06-27 21:39:00,
2013-06-27 17:44:00,86.8,75.8,29.95,NNW,345,2.3,2.3,70,0.00,CLR,OVC,0.25,WeatherDisplay:10.37,2013-06-27 21:44:00,
2013-06-27 17:49:00,87.2,77.5,29.95,SW,223,1.1,1.1,73,0.00,CLR,OVC,0.25,WeatherDisplay:10.37,2013-06-27 21:49:00,
2013-06-27 17:54:00,87.8,77.2,29.95,SW,236,2.0,2.0,71,0.00,CLR,OVC,0.25,WeatherDisplay:10.37,2013-06-27 21:54:00,
2013-06-27 17:59:00,87.9,76.9,29.95,NW,319,3.4,3.4,70,0.00,CLR,OVC,0.25,WeatherDisplay:10.37,2013-06-27 21:59:00,
2013-06-27 18:04:00,88.0,77.0,29.95,SW,221,2.3,2.3,70,0.00,CLR,OVC,0.25,WeatherDisplay:10.37,2013-06-27 22:04:00,
2013-06-27 18:09:00,87.9,76.5,29.95,WSW,249,3.4,3.4,69,0.00,CLR,OVC,0.25,WeatherDisplay:10.37,2013-06-27 22:09:00,
2013-06-27 18:14:00,88.0,76.5,29.95,SW,230,2.3,2.3,69,0.00,CLR,OVC,0.25,WeatherDisplay:10.37,2013-06-27 22:14:00,
2013-06-27 18:19:00,87.9,76.5,29.95,WSW,257,3.0,3.0,69,0.00,CLR,OVC,0.25,WeatherDisplay:10.37,2013-06-27 22:19:00,
2013-06-27 18:24:00,87.9,75.6,29.95,SW,216,3.4,3.4,67,0.00,CLR,OVC,0.25,WeatherDisplay:10.37,2013-06-27 22:24:00,
2013-06-27 18:29:00,87.8,74.6,29.95,WSW,249,5.8,5.8,65,0.00,CLR,OVC,0.25,WeatherDisplay:10.37,2013-06-27 22:29:00,
2013-06-27 18:34:00,87.7,74.9,29.94,SW,228,3.4,3.4,66,0.00,CLR,OVC,0.25,WeatherDisplay:10.37,2013-06-27 22:34:00,
2013-06-27 18:39:00,87.5,73.3,29.95,SW,230,4.6,4.6,63,0.00,CLR,OVC,0.25,WeatherDisplay:10.37,2013-06-27 22:39:00,
2013-06-27 18:44:00,87.0,74.3,29.95,NW,319,1.1,1.4,66,0.00,CLR,OVC,0.25,WeatherDisplay:10.37,2013-06-27 22:44:00,
2013-06-27 18:49:00,87.0,74.3,29.95,SW,232,3.4,3.4,66,0.00,CLR,OVC,0.25,WeatherDisplay:10.37,2013-06-27 22:49:00,
2013-06-27 18:54:00,87.3,74.5,29.95,SW,230,1.1,0.0,66,0.00,CLR,OVC,0.25,WeatherDisplay:10.37,2013-06-27 22:54:00,
2013-06-27 18:59:00,87.5,75.2,29.95,WSW,258,3.4,3.4,67,0.00,CLR,OVC,0.25,WeatherDisplay:10.37,2013-06-27 22:59:00,
2013-06-27 19:04:00,87.0,74.7,29.95,SSW,199,3.4,3.4,67,0.00,CLR,OVC,0.25,WeatherDisplay:10.37,2013-06-27 23:04:00,
2013-06-27 19:09:00,86.7,74.9,29.95,SSW,204,3.4,3.4,68,0.00,CLR,OVC,0.25,WeatherDisplay:10.37,2013-06-27 23:09:00,
2013-06-27 19:14:00,86.6,75.2,29.95,SW,236,3.4,3.4,69,0.00,CLR,OVC,0.25,WeatherDisplay:10.37,2013-06-27 23:14:00,
2013-06-27 19:19:00,86.3,75.4,29.95,SSW,198,2.3,2.3,70,0.00,CLR,OVC,0.25,WeatherDisplay:10.37,2013-06-27 23:19:00,
2013-06-27 19:24:00,86.2,74.8,29.95,SE,135,3.0,3.0,69,0.00,CLR,OVC,0.25,WeatherDisplay:10.37,2013-06-27 23:24:00,
2013-06-27 19:29:00,86.1,75.2,29.95,SSW,196,1.1,1.1,70,0.00,CLR,OVC,0.25,WeatherDisplay:10.37,2013-06-27 23:29:00,
2013-06-27 19:34:00,86.0,75.1,29.95,South,181,3.4,3.4,70,0.00,CLR,OVC,0.25,WeatherDisplay:10.37,2013-06-27 23:34:00,
2013-06-27 19:39:00,85.8,75.3,29.95,South,180,2.3,2.3,71,0.00,CLR,OVC,0.25,WeatherDisplay:10.37,2013-06-27 23:39:00,
2013-06-27 19:44:00,85.4,75.3,29.95,South,187,1.1,0.0,72,0.00,CLR,OVC,0.25,WeatherDisplay:10.37,2013-06-27 23:44:00,
2013-06-27 19:49:00,85.2,76.0,29.95,SSW,196,3.4,3.4,74,0.00,CLR,OVC,0.25,WeatherDisplay:10.37,2013-06-27 23:49:00,
2013-06-27 19:54:00,84.9,76.5,29.95,SSE,161,1.1,1.2,76,0.00,CLR,OVC,0.25,WeatherDisplay:10.37,2013-06-27 23:54:00,
2013-06-27 19:59:00,84.4,76.0,29.95,SSE,164,2.3,2.3,76,0.00,CLR,OVC,0.25,WeatherDisplay:10.37,2013-06-27 23:59:00,
2013-06-27 20:04:00,84.0,76.0,29.94,SSE,168,2.3,2.3,77,0.00,CLR,OVC,0.25,WeatherDisplay:10.37,2013-06-28 00:04:00,
2013-06-27 20:09:00,83.7,76.1,29.94,SSE,155,0.0,0.1,78,0.00,CLR,OVC,0.25,WeatherDisplay:10.37,2013-06-28 00:09:00,
2013-06-27 20:14:00,83.3,76.1,29.94,SSW,195,1.1,0.0,79,0.00,CLR,OVC,0.25,WeatherDisplay:10.37,2013-06-28 00:14:00,
2013-06-27 20:19:00,82.9,75.7,29.94,South,181,1.1,1.1,79,0.00,CLR,OVC,0.25,WeatherDisplay:10.37,2013-06-28 00:19:00,
2013-06-27 20:24:00,82.6,75.8,29.94,SW,220,0.0,0.0,80,0.00,CLR,OVC,0.25,WeatherDisplay:10.37,2013-06-28 00:24:00,
2013-06-27 20:29:00,82.3,75.5,29.94,SSW,210,1.1,0.0,80,0.00,CLR,OVC,0.25,WeatherDisplay:10.37,2013-06-28 00:29:00,
2013-06-27 20:34:00,82.0,75.2,29.94,SSW,211,1.1,1.1,80,0.00,CLR,OVC,0.25,WeatherDisplay:10.37,2013-06-28 00:34:00,
2013-06-27 20:39:00,81.7,75.3,29.94,SSW,211,0.0,0.0,81,0.00,CLR,OVC,0.25,WeatherDisplay:10.37,2013-06-28 00:39:00,
2013-06-27 20:44:00,81.6,75.2,29.94,SSW,211,0.0,0.0,81,0.00,CLR,OVC,0.25,WeatherDisplay:10.37,2013-06-28 00:44:00,
2013-06-27 20:49:00,81.3,74.9,29.94,SSW,211,0.0,0.0,81,0.00,CLR,OVC,0.25,WeatherDisplay:10.37,2013-06-28 00:49:00,
2013-06-27 20:54:00,81.1,75.1,29.94,SSW,211,0.0,0.0,82,0.00,CLR,OVC,0.25,WeatherDisplay:10.37,2013-06-28 00:54:00,
2013-06-27 20:59:00,80.8,74.8,29.95,SSW,211,0.0,0.0,82,0.00,CLR,OVC,0.25,WeatherDisplay:10.37,2013-06-28 00:59:00,
2013-06-27 21:04:00,80.5,74.9,29.95,SSW,211,0.0,0.0,83,0.00,CLR,OVC,0.25,WeatherDisplay:10.37,2013-06-28 01:04:00,
2013-06-27 21:09:00,80.3,74.7,29.95,SSW,211,0.0,0.0,83,0.00,CLR,OVC,0.25,WeatherDisplay:10.37,2013-06-28 01:09:00,
2013-06-27 21:14:00,80.0,74.7,29.95,SSW,211,0.0,0.0,84,0.00,CLR,OVC,0.25,WeatherDisplay:10.37,2013-06-28 01:14:00,
2013-06-27 21:19:00,79.8,74.9,29.95,SSW,211,0.0,0.0,85,0.00,CLR,OVC,0.25,WeatherDisplay:10.37,2013-06-28 01:19:00,
2013-06-27 21:24:00,79.6,74.7,29.95,South,171,1.1,1.1,85,0.00,CLR,OVC,0.25,WeatherDisplay:10.37,2013-06-28 01:24:00,
2013-06-27 21:29:00,79.3,74.7,29.95,South,171,1.0,1.0,86,0.00,CLR,OVC,0.25,WeatherDisplay:10.37,2013-06-28 01:29:00,
2013-06-27 21:34:00,79.1,74.5,29.95,South,170,1.1,1.1,86,0.00,CLR,OVC,0.25,WeatherDisplay:10.37,2013-06-28 01:34:00,
2013-06-27 21:39:00,79.1,74.5,29.95,South,170,0.0,0.0,86,0.00,CLR,OVC,0.25,WeatherDisplay:10.37,2013-06-28 01:39:00,
2013-06-27 21:44:00,79.0,74.5,29.96,South,170,0.0,0.0,86,0.00,CLR,OVC,0.25,WeatherDisplay:10.37,2013-06-28 01:44:00,
2013-06-27 21:49:00,78.8,74.6,29.96,SSE,166,2.3,2.3,87,0.00,CLR,OVC,0.25,WeatherDisplay:10.37,2013-06-28 01:49:00,
2013-06-27 21:54:00,78.7,74.5,29.96,SE,134,2.3,2.3,87,0.00,CLR,OVC,0.25,WeatherDisplay:10.37,2013-06-28 01:54:00,
2013-06-27 21:59:00,78.7,74.5,29.96,SSE,165,1.1,0.0,87,0.00,CLR,OVC,0.25,WeatherDisplay:10.37,2013-06-28 01:59:00,
2013-06-27 22:04:00,78.6,74.4,29.96,SSE,165,0.0,0.0,87,0.00,CLR,OVC,0.25,WeatherDisplay:10.37,2013-06-28 02:04:00,
2013-06-27 22:10:00,78.4,74.2,29.96,SSE,161,0.0,0.0,87,0.00,CLR,OVC,0.25,WeatherDisplay:10.37,2013-06-28 02:10:00,
2013-06-27 22:15:00,78.2,74.0,29.96,SSE,161,0.0,0.0,87,0.00,CLR,OVC,0.25,WeatherDisplay:10.37,2013-06-28 02:15:00,
2013-06-27 22:20:00,78.0,73.8,29.96,SSE,161,0.0,0.0,87,0.00,CLR,OVC,0.25,WeatherDisplay:10.37,2013-06-28 02:20:00,
2013-06-27 22:25:00,78.1,73.9,29.96,SSE,147,2.3,2.3,87,0.00,CLR,OVC,0.25,WeatherDisplay:10.37,2013-06-28 02:25:00,
2013-06-27 22:30:00,78.2,74.0,29.96,East,100,1.0,1.0,87,0.00,CLR,OVC,0.25,WeatherDisplay:10.37,2013-06-28 02:30:00,
2013-06-27 22:35:00,78.2,74.0,29.96,ENE,76,1.1,0.0,87,0.00,CLR,OVC,0.25,WeatherDisplay:10.37,2013-06-28 02:35:00,
2013-06-27 22:40:00,78.2,74.0,29.96,ENE,75,0.0,0.0,87,0.00,CLR,OVC,0.25,WeatherDisplay:10.37,2013-06-28 02:40:00,
2013-06-27 22:44:00,77.9,74.1,29.96,ENE,75,1.0,1.0,88,0.00,CLR,OVC,0.25,WeatherDisplay:10.37,2013-06-28 02:44:00,
2013-06-27 22:45:00,77.9,74.1,29.96,ENE,75,1.0,1.0,88,0.00,CLR,OVC,0.25,WeatherDisplay:10.37,2013-06-28 02:45:00,
2013-06-27 22:50:00,77.9,74.1,29.96,ENE,75,1.0,1.0,88,0.00,CLR,OVC,0.25,WeatherDisplay:10.37,2013-06-28 02:50:00,
2013-06-27 23:00:00,77.1,73.3,29.97,ENE,71,1.0,0.0,88,0.00,CLR,OVC,0.25,WeatherDisplay:10.37,2013-06-28 03:00:00,
2013-06-27 23:05:00,77.1,73.3,29.97,ENE,72,0.0,0.0,88,0.00,CLR,OVC,0.25,WeatherDisplay:10.37,2013-06-28 03:05:00,
2013-06-27 23:10:00,77.3,73.8,29.98,SE,133,1.1,1.1,89,0.00,CLR,OVC,0.25,WeatherDisplay:10.37,2013-06-28 03:10:00,
2013-06-27 23:15:00,77.3,73.5,29.98,SE,133,1.1,1.1,88,0.00,CLR,OVC,0.25,WeatherDisplay:10.37,2013-06-28 03:15:00,
2013-06-27 23:20:00,77.4,73.6,29.98,SE,132,1.1,1.2,88,0.00,CLR,OVC,0.25,WeatherDisplay:10.37,2013-06-28 03:20:00,
2013-06-27 23:25:00,77.4,73.6,29.98,SE,134,2.3,2.3,88,0.00,CLR,OVC,0.25,WeatherDisplay:10.37,2013-06-28 03:25:00,
2013-06-27 23:30:00,77.4,73.6,29.98,SE,137,1.1,1.1,88,0.00,CLR,OVC,0.25,WeatherDisplay:10.37,2013-06-28 03:30:00,
2013-06-27 23:35:00,77.6,73.8,29.98,SW,230,2.3,2.3,88,0.00,CLR,OVC,0.25,WeatherDisplay:10.37,2013-06-28 03:35:00,
2013-06-27 23:40:00,77.9,73.7,29.98,SW,229,1.1,1.1,87,0.00,CLR,OVC,0.25,WeatherDisplay:10.37,2013-06-28 03:40:00,
2013-06-27 23:45:00,78.1,73.9,29.98,SW,229,1.1,1.1,87,0.00,CLR,OVC,0.25,WeatherDisplay:10.37,2013-06-28 03:45:00,
2013-06-27 23:50:00,78.1,73.9,29.97,SW,232,1.1,1.1,87,0.00,CLR,OVC,0.25,WeatherDisplay:10.37,2013-06-28 03:50:00,
2013-06-27 23:55:00,78.0,74.2,29.98,SW,232,1.1,0.0,88,0.00,CLR,OVC,0.25,WeatherDisplay:10.37,2013-06-28 03:55:00,